createdAt,value
2022-08-23T00:01:31.301Z,55.80
2022-08-23T00:04:02.863Z,55.80
2022-08-23T00:06:30.902Z,55.80
2022-08-23T00:08:59.105Z,55.80
2022-08-23T00:11:33.988Z,55.90
2022-08-23T00:14:06.615Z,55.80
2022-08-23T00:16:33.423Z,55.80
2022-08-23T00:19:00.179Z,55.80
2022-08-23T00:21:29.158Z,55.80
2022-08-23T00:23:56.416Z,55.80
2022-08-23T00:26:23.526Z,55.90
2022-08-23T00:28:50.479Z,55.80
2022-08-23T00:31:20.074Z,55.80
2022-08-23T00:33:47.036Z,55.80
2022-08-23T00:36:14.995Z,55.80
2022-08-23T00:38:42.083Z,55.70
2022-08-23T00:43:59.500Z,55.80
2022-08-23T00:47:10.068Z,55.80
2022-08-23T00:49:39.700Z,55.80
2022-08-23T00:52:32.439Z,55.80
2022-08-23T00:55:00.338Z,55.70
2022-08-23T00:57:28.853Z,55.70
2022-08-23T00:59:56.748Z,55.70
2022-08-23T01:02:24.931Z,55.00
2022-08-23T01:04:58.169Z,55.70
2022-08-23T01:07:46.893Z,55.70
2022-08-23T01:10:42.168Z,55.60
2022-08-23T01:13:21.213Z,55.60
2022-08-23T01:15:56.031Z,55.60
2022-08-23T01:18:26.755Z,55.60
2022-08-23T01:21:16.242Z,55.50
2022-08-23T01:23:53.508Z,55.50
2022-08-23T01:26:22.542Z,55.60
2022-08-23T01:28:51.445Z,55.50
2022-08-23T01:31:21.005Z,55.50
2022-08-23T01:33:55.851Z,55.50
2022-08-23T01:36:23.696Z,55.60
2022-08-23T01:38:52.882Z,55.60
2022-08-23T01:41:20.277Z,55.60
2022-08-23T01:43:48.744Z,55.50
2022-08-23T01:46:20.813Z,55.60
2022-08-23T01:48:51.291Z,55.50
2022-08-23T01:51:20.126Z,55.50
2022-08-23T01:53:47.457Z,56.30
2022-08-23T01:56:20.190Z,55.60
2022-08-23T01:59:01.666Z,55.40
2022-08-23T02:01:34.832Z,55.50
2022-08-23T02:04:04.766Z,55.60
2022-08-23T02:06:33.254Z,55.50
2022-08-23T02:09:03.954Z,55.50
2022-08-23T02:11:38.670Z,55.50
2022-08-23T02:14:11.987Z,55.60
2022-08-23T02:16:58.075Z,55.70
2022-08-23T02:19:37.817Z,56.30
2022-08-23T02:22:07.375Z,55.60
2022-08-23T02:24:38.874Z,55.50
2022-08-23T02:27:06.200Z,55.60
2022-08-23T02:29:39.797Z,55.60
2022-08-23T02:32:10.458Z,55.60
2022-08-23T02:34:39.562Z,55.60
2022-08-23T02:37:09.061Z,56.40
2022-08-23T02:39:36.559Z,55.60
2022-08-23T02:42:07.124Z,55.60
2022-08-23T02:44:38.331Z,55.60
2022-08-23T02:47:07.583Z,55.70
2022-08-23T02:49:35.775Z,55.70
2022-08-23T02:52:06.290Z,55.70
2022-08-23T02:54:35.536Z,55.60
2022-08-23T02:57:04.531Z,55.80
2022-08-23T02:59:33.386Z,55.70
2022-08-23T03:02:00.398Z,56.40
2022-08-23T03:04:32.623Z,55.70
2022-08-23T03:06:59.466Z,55.70
2022-08-23T03:09:27.810Z,55.70
2022-08-23T03:11:54.652Z,55.80
2022-08-23T03:14:22.226Z,55.70
2022-08-23T03:16:49.510Z,55.80
2022-08-23T03:19:17.119Z,55.90
2022-08-23T03:21:45.120Z,56.00
2022-08-23T03:24:12.858Z,56.10
2022-08-23T03:26:45.953Z,56.00
2022-08-23T03:29:15.540Z,56.10
2022-08-23T03:32:02.035Z,56.20
2022-08-23T03:34:32.651Z,56.10
2022-08-23T03:37:00.915Z,56.20
2022-08-23T03:39:28.678Z,56.30
2022-08-23T03:41:57.846Z,56.30
2022-08-23T03:44:25.588Z,56.30
2022-08-23T03:46:52.385Z,56.20
2022-08-23T03:49:19.999Z,56.20
2022-08-23T03:51:56.088Z,56.30
2022-08-23T03:54:23.199Z,56.30
2022-08-23T03:56:55.942Z,56.30
2022-08-23T03:59:23.984Z,56.30
2022-08-23T04:01:50.831Z,56.50
2022-08-23T04:04:17.792Z,56.30
2022-08-23T04:07:07.986Z,56.30
2022-08-23T04:09:36.214Z,56.40
2022-08-23T04:12:03.453Z,56.40
2022-08-23T04:14:38.870Z,56.50
2022-08-23T04:17:05.962Z,56.40
2022-08-23T04:19:32.751Z,56.50
2022-08-23T04:22:03.706Z,56.50
2022-08-23T04:24:37.610Z,56.50
2022-08-23T04:27:05.140Z,56.50
2022-08-23T04:29:34.153Z,56.50
2022-08-23T04:32:05.419Z,56.40
2022-08-23T04:34:38.138Z,56.60
2022-08-23T04:37:10.202Z,56.50
2022-08-23T04:39:57.283Z,56.50
2022-08-23T04:42:26.802Z,56.40
2022-08-23T04:44:53.830Z,56.60
2022-08-23T04:47:20.958Z,56.60
2022-08-23T04:49:49.466Z,56.50
2022-08-23T04:52:19.371Z,56.50
2022-08-23T04:54:47.371Z,56.60
2022-08-23T04:57:35.863Z,56.40
2022-08-23T05:00:04.578Z,56.60
2022-08-23T05:02:31.700Z,56.50
2022-08-23T05:04:58.488Z,56.70
2022-08-23T05:07:31.904Z,56.60
2022-08-23T05:10:16.236Z,56.70
2022-08-23T05:12:48.500Z,56.70
2022-08-23T05:15:16.968Z,56.80
2022-08-23T05:17:47.003Z,56.70
2022-08-23T05:20:14.016Z,56.80
2022-08-23T05:22:42.719Z,56.80
2022-08-23T05:25:21.335Z,56.80
2022-08-23T05:27:49.291Z,56.90
2022-08-23T05:30:16.141Z,57.00
2022-08-23T05:32:43.868Z,57.00
2022-08-23T05:35:12.719Z,57.00
2022-08-23T05:37:42.802Z,57.10
2022-08-23T05:40:11.029Z,57.10
2022-08-23T05:42:47.204Z,57.20
2022-08-23T05:45:15.580Z,57.20
2022-08-23T05:47:47.451Z,57.30
2022-08-23T05:50:25.818Z,57.30
2022-08-23T05:52:52.723Z,57.40
2022-08-23T05:55:21.885Z,57.40
2022-08-23T05:58:09.930Z,57.50
2022-08-23T06:00:39.257Z,57.50
2022-08-23T06:03:07.442Z,57.50
2022-08-23T06:05:37.834Z,57.40
2022-08-23T06:08:15.415Z,57.50
2022-08-23T06:10:42.617Z,57.90
2022-08-23T06:13:30.289Z,57.80
2022-08-23T06:15:58.753Z,58.10
2022-08-23T06:18:26.958Z,58.30
2022-08-23T06:21:06.490Z,58.60
2022-08-23T06:23:43.315Z,59.40
2022-08-23T06:26:19.698Z,58.60
2022-08-23T06:28:50.498Z,58.50
2022-08-23T06:31:40.552Z,58.70
2022-08-23T06:34:18.554Z,59.00
2022-08-23T06:37:14.342Z,59.20
2022-08-23T06:40:08.381Z,59.80
2022-08-23T06:42:47.311Z,60.30
2022-08-23T06:45:19.147Z,60.30
2022-08-23T06:47:48.805Z,60.40
2022-08-23T06:50:15.617Z,60.30
2022-08-23T06:53:07.023Z,60.20
2022-08-23T06:55:43.103Z,60.10
2022-08-23T06:58:17.731Z,60.10
2022-08-23T07:01:44.023Z,60.10
2022-08-23T07:04:18.551Z,60.00
2022-08-23T07:07:11.340Z,59.80
2022-08-23T07:09:39.660Z,59.90
2022-08-23T07:12:07.354Z,59.90
2022-08-23T07:14:37.954Z,59.90
2022-08-23T07:17:05.526Z,60.70
2022-08-23T07:19:34.570Z,59.70
2022-08-23T07:22:02.791Z,59.90
2022-08-23T07:24:33.511Z,59.90
2022-08-23T07:27:07.080Z,59.90
2022-08-23T07:29:37.739Z,60.70
2022-08-23T07:32:04.928Z,59.80
2022-08-23T07:34:33.103Z,60.00
2022-08-23T07:37:01.430Z,59.90
2022-08-23T07:39:31.582Z,59.90
2022-08-23T07:42:01.423Z,60.00
2022-08-23T07:44:48.289Z,60.00
2022-08-23T07:47:21.294Z,60.00
2022-08-23T07:49:48.265Z,60.00
2022-08-23T07:52:15.283Z,60.40
2022-08-23T07:54:48.266Z,60.10
2022-08-23T07:57:35.074Z,60.10
2022-08-23T08:00:11.919Z,60.10
2022-08-23T08:02:55.476Z,60.10
2022-08-23T08:05:32.567Z,60.00
2022-08-23T08:07:59.921Z,59.90
2022-08-23T08:10:27.960Z,60.00
2022-08-23T08:12:55.699Z,60.00
2022-08-23T08:15:24.598Z,60.10
2022-08-23T08:18:00.181Z,60.10
2022-08-23T08:20:50.155Z,60.10
2022-08-23T08:23:36.250Z,60.10
2022-08-23T08:26:28.898Z,60.20
2022-08-23T08:28:57.527Z,60.30
2022-08-23T08:31:27.587Z,60.20
2022-08-23T08:33:55.499Z,60.20
2022-08-23T08:36:32.023Z,60.20
2022-08-23T08:39:00.828Z,61.90
2022-08-23T08:42:05.368Z,60.40
2022-08-23T08:44:42.166Z,60.50
2022-08-23T08:47:31.222Z,61.00
2022-08-23T08:50:20.232Z,61.10
2022-08-23T08:52:57.722Z,60.50
2022-08-23T08:55:59.390Z,60.30
2022-08-23T08:58:35.958Z,60.60
2022-08-23T09:01:03.067Z,60.30
2022-08-23T09:03:34.479Z,60.50
2022-08-23T09:06:28.568Z,60.50
2022-08-23T09:09:08.750Z,60.50
2022-08-23T09:12:07.121Z,60.70
2022-08-23T09:14:40.455Z,60.90
2022-08-23T09:17:21.575Z,61.00
2022-08-23T09:22:28.296Z,61.20
2022-08-23T09:24:58.100Z,61.30
2022-08-23T09:27:30.881Z,61.00
2022-08-23T09:37:47.415Z,61.10
2022-08-23T09:40:26.575Z,61.20
2022-08-23T09:43:08.191Z,61.30
2022-08-23T09:45:53.499Z,61.10
2022-08-23T09:48:33.355Z,61.20
2022-08-23T09:51:19.812Z,61.20
2022-08-23T09:53:50.699Z,61.20
2022-08-23T09:56:24.743Z,61.10
2022-08-23T09:58:54.024Z,61.20
2022-08-23T10:01:39.299Z,61.10
2022-08-23T10:04:16.488Z,61.20
2022-08-23T10:06:46.271Z,61.10
2022-08-23T10:19:40.531Z,61.10
2022-08-23T10:28:03.963Z,61.00
2022-08-23T10:30:39.634Z,61.00
2022-08-23T10:41:37.601Z,60.60
2022-08-23T10:46:41.766Z,60.70
2022-08-23T10:49:13.100Z,60.60
2022-08-23T10:54:18.711Z,60.50
2022-08-23T10:59:26.364Z,60.40
2022-08-23T11:02:32.411Z,60.40
2022-08-23T11:05:27.072Z,60.30
2022-08-23T11:08:05.053Z,60.30
2022-08-23T11:13:25.769Z,60.10
2022-08-23T11:21:09.626Z,59.90
2022-08-23T11:26:39.761Z,59.80
2022-08-23T11:29:09.632Z,59.80
2022-08-23T11:31:48.802Z,59.90
2022-08-23T11:34:51.461Z,60.00
2022-08-23T11:37:19.014Z,59.90
2022-08-23T11:39:58.448Z,60.00
2022-08-23T11:42:52.848Z,59.90
2022-08-23T11:45:46.638Z,59.90
2022-08-23T11:48:22.624Z,59.90
2022-08-23T11:50:59.568Z,59.80
2022-08-23T11:53:41.799Z,59.90
2022-08-23T11:56:23.655Z,59.70
2022-08-23T11:59:21.668Z,59.80
2022-08-23T12:01:50.758Z,59.70
2022-08-23T12:04:38.158Z,59.80
2022-08-23T12:07:12.724Z,59.70
2022-08-23T12:09:42.980Z,60.80
2022-08-23T12:12:34.787Z,59.90
2022-08-23T12:15:08.839Z,60.40
2022-08-23T12:17:40.476Z,59.70
2022-08-23T12:20:16.985Z,59.70
2022-08-23T12:23:04.643Z,60.50
2022-08-23T12:25:32.303Z,59.80
2022-08-23T12:28:29.889Z,59.70
2022-08-23T12:31:14.730Z,59.80
2022-08-23T12:34:02.290Z,59.70
2022-08-23T12:36:39.295Z,60.40
2022-08-23T12:39:09.218Z,60.30
2022-08-23T12:41:56.188Z,59.70
2022-08-23T12:44:26.840Z,60.50
2022-08-23T12:46:54.100Z,59.70
2022-08-23T12:49:26.175Z,59.70
2022-08-23T12:51:55.434Z,60.60
2022-08-23T12:54:33.115Z,59.70
2022-08-23T12:57:00.639Z,59.60
2022-08-23T12:59:34.534Z,59.60
2022-08-23T13:02:09.782Z,59.50
2022-08-23T13:04:39.862Z,59.50
2022-08-23T13:07:12.241Z,61.20
2022-08-23T13:09:41.870Z,59.40
2022-08-23T13:12:10.887Z,59.40
2022-08-23T13:14:43.198Z,59.40
2022-08-23T13:17:25.420Z,60.10
2022-08-23T13:20:01.387Z,59.30
2022-08-23T13:22:33.363Z,59.20
2022-08-23T13:25:31.934Z,59.30
2022-08-23T13:28:23.691Z,59.20
2022-08-23T13:31:08.020Z,59.20
2022-08-23T13:33:35.170Z,59.20
2022-08-23T13:36:31.991Z,59.10
2022-08-23T13:39:05.844Z,59.00
2022-08-23T13:41:38.743Z,59.80
2022-08-23T13:44:08.793Z,59.70
2022-08-23T13:46:45.083Z,59.60
2022-08-23T13:49:18.105Z,58.90
2022-08-23T13:52:38.008Z,58.80
2022-08-23T13:54:54.643Z,58.80
2022-08-23T13:57:22.187Z,58.80
2022-08-23T13:59:52.923Z,58.70
2022-08-23T14:02:22.361Z,58.70
2022-08-23T14:04:49.558Z,58.70
2022-08-23T14:07:16.722Z,59.80
2022-08-23T14:12:17.852Z,58.50
2022-08-23T14:14:45.576Z,58.50
2022-08-23T14:17:16.598Z,59.20
2022-08-23T14:22:35.523Z,58.40
2022-08-23T14:25:02.527Z,58.30
2022-08-23T14:27:29.699Z,58.30
2022-08-23T14:29:56.483Z,58.30
2022-08-23T14:32:23.462Z,59.40
2022-08-23T14:34:50.326Z,61.70
2022-08-23T14:47:27.048Z,58.10
2022-08-23T14:52:21.721Z,58.10
2022-08-23T14:54:49.864Z,58.00
2022-08-23T14:57:16.710Z,58.00
2022-08-23T14:59:43.624Z,58.00
2022-08-23T15:02:13.270Z,58.00
2022-08-23T15:04:41.646Z,59.40
2022-08-23T15:07:24.033Z,58.00
2022-08-23T15:09:54.647Z,58.00
2022-08-23T15:15:16.503Z,58.00
2022-08-23T15:17:53.379Z,58.00
2022-08-23T15:20:32.719Z,58.00
2022-08-23T15:23:00.539Z,58.10
2022-08-23T15:25:30.463Z,58.00
2022-08-23T15:27:58.462Z,58.70
2022-08-23T15:30:25.426Z,58.10
2022-08-23T15:33:02.464Z,58.10
2022-08-23T15:35:36.647Z,58.10
2022-08-23T15:38:06.286Z,58.20
2022-08-23T15:40:33.137Z,58.20
2022-08-23T15:43:00.179Z,58.20
2022-08-23T15:45:27.199Z,58.20
2022-08-23T15:47:56.802Z,58.30
2022-08-23T15:50:26.951Z,58.30
2022-08-23T15:52:53.898Z,58.30
2022-08-23T15:55:21.238Z,58.40
2022-08-23T15:57:50.906Z,58.40
2022-08-23T16:00:20.065Z,59.10
2022-08-23T16:03:15.911Z,58.50
2022-08-23T16:05:35.340Z,58.50
2022-08-23T16:08:02.166Z,59.10
2022-08-23T16:10:29.019Z,58.50
2022-08-23T16:12:56.126Z,58.60
2022-08-23T16:15:23.047Z,58.60
2022-08-23T16:17:49.894Z,58.60
2022-08-23T16:20:17.534Z,58.70
2022-08-23T16:25:12.056Z,58.70
2022-08-23T16:27:38.997Z,58.80
2022-08-23T16:30:07.004Z,58.80
2022-08-23T16:32:33.730Z,59.50
2022-08-23T16:35:00.583Z,59.00
2022-08-23T16:37:27.387Z,58.90
2022-08-23T16:39:54.252Z,59.00
2022-08-23T16:42:21.224Z,59.00
2022-08-23T16:47:16.907Z,59.10
2022-08-23T16:49:43.842Z,59.10
2022-08-23T16:52:11.690Z,59.10
2022-08-23T16:54:38.876Z,59.10
2022-08-23T16:57:06.810Z,59.20
2022-08-23T16:59:40.379Z,59.30
2022-08-23T17:02:10.793Z,59.20
2022-08-23T17:04:38.131Z,59.90
2022-08-23T17:07:05.075Z,60.60
2022-08-23T17:09:32.114Z,59.40
2022-08-23T17:11:59.240Z,59.40
2022-08-23T17:14:26.502Z,59.50
2022-08-23T17:16:53.470Z,59.50
2022-08-23T17:19:20.576Z,59.60
2022-08-23T17:21:47.440Z,59.60
2022-08-23T17:24:14.482Z,59.70
2022-08-23T17:26:41.684Z,59.60
2022-08-23T17:29:09.385Z,59.70
2022-08-23T17:31:37.814Z,59.70
2022-08-23T17:34:05.286Z,59.90
2022-08-23T17:36:47.858Z,59.80
2022-08-23T17:39:17.077Z,60.70
2022-08-23T17:41:45.546Z,59.90
2022-08-23T17:44:13.361Z,59.90
2022-08-23T17:46:43.369Z,59.90
2022-08-23T17:49:11.284Z,59.90
2022-08-23T17:51:40.471Z,60.00
2022-08-23T17:54:08.950Z,61.00
2022-08-23T17:56:37.042Z,60.20
2022-08-23T17:59:05.464Z,60.20
2022-08-23T18:01:33.397Z,61.10
2022-08-23T18:04:00.402Z,60.20
2022-08-23T18:06:27.370Z,60.20
2022-08-23T18:08:55.332Z,60.30
2022-08-23T18:11:22.806Z,60.10
2022-08-23T18:13:49.743Z,60.20
2022-08-23T18:16:17.085Z,60.10
2022-08-23T18:18:43.841Z,60.30
2022-08-23T18:21:14.146Z,60.30
2022-08-23T18:26:46.635Z,60.50
2022-08-23T18:29:14.377Z,60.50
2022-08-23T18:31:43.382Z,60.70
2022-08-23T18:34:12.329Z,60.80
2022-08-23T18:36:39.572Z,61.10
2022-08-23T18:39:08.010Z,60.70
2022-08-23T18:41:35.319Z,61.70
2022-08-23T18:44:05.448Z,62.10
2022-08-23T18:46:37.463Z,61.20
2022-08-23T18:49:05.386Z,60.90
2022-08-23T18:51:32.407Z,60.90
2022-08-23T18:53:59.738Z,61.00
2022-08-23T18:56:26.684Z,62.20
2022-08-23T18:58:53.626Z,61.00
2022-08-23T19:01:46.927Z,61.10
2022-08-23T19:14:10.641Z,61.50
2022-08-23T19:16:38.260Z,61.60
2022-08-23T19:19:05.788Z,61.80
2022-08-23T19:21:33.690Z,61.80
2022-08-23T19:24:01.060Z,59.50
2022-08-23T19:26:32.576Z,63.40
2022-08-23T19:29:05.723Z,61.90
2022-08-23T19:31:36.229Z,61.90
2022-08-23T19:34:06.497Z,62.10
2022-08-23T19:39:16.412Z,62.00
2022-08-23T19:41:43.757Z,62.90
2022-08-23T19:44:10.977Z,63.10
2022-08-23T19:46:41.904Z,62.20
2022-08-23T19:49:10.498Z,62.10
2022-08-23T19:51:38.156Z,62.10
2022-08-23T19:54:11.184Z,62.20
2022-08-23T19:56:43.236Z,62.20
2022-08-23T19:59:19.492Z,62.90
2022-08-23T20:01:50.935Z,62.70
2022-08-23T20:04:19.216Z,62.20
2022-08-23T20:06:46.711Z,63.10
2022-08-23T20:09:13.546Z,62.20
2022-08-23T20:11:41.373Z,62.20
2022-08-23T20:14:09.887Z,64.10
2022-08-23T20:16:40.726Z,62.30
2022-08-23T20:19:09.305Z,62.30
2022-08-23T20:21:36.529Z,63.20
2022-08-23T20:24:04.285Z,63.20
2022-08-23T20:26:38.986Z,62.30
2022-08-23T20:29:07.436Z,62.30
2022-08-23T20:31:39.455Z,62.40
2022-08-23T20:34:08.783Z,62.40
2022-08-23T20:36:36.101Z,65.00
2022-08-23T20:39:03.978Z,62.50
2022-08-23T20:41:34.956Z,62.50
2022-08-23T20:44:02.651Z,62.50
2022-08-23T20:46:29.886Z,63.50
2022-08-23T20:48:57.639Z,62.60
2022-08-23T20:51:27.344Z,62.60
2022-08-23T20:53:54.790Z,63.70
2022-08-23T20:56:23.454Z,63.70
2022-08-23T20:58:50.832Z,63.60
2022-08-23T21:01:18.368Z,62.70
2022-08-23T21:03:45.488Z,62.80
2022-08-23T21:06:20.002Z,62.40
2022-08-23T21:08:53.490Z,63.60
2022-08-23T21:11:21.775Z,62.70
2022-08-23T21:13:48.641Z,62.60
2022-08-23T21:16:16.954Z,62.70
2022-08-23T21:18:44.060Z,62.80
2022-08-23T21:21:11.680Z,62.70
2022-08-23T21:23:39.338Z,63.60
2022-08-23T21:26:07.378Z,62.70
2022-08-23T21:28:35.988Z,63.70
2022-08-23T21:31:09.106Z,62.80
2022-08-23T21:33:40.009Z,63.80
2022-08-23T21:36:08.875Z,62.80
2022-08-23T21:38:36.194Z,63.00
2022-08-23T21:41:05.496Z,62.90
2022-08-23T21:43:32.787Z,63.00
2022-08-23T21:45:59.815Z,63.00
2022-08-23T21:48:26.808Z,63.00
2022-08-23T21:50:54.023Z,63.00
2022-08-23T21:53:21.512Z,63.00
2022-08-23T21:55:48.327Z,63.10
2022-08-23T21:58:15.115Z,63.00
2022-08-23T22:00:42.362Z,63.00
2022-08-23T22:03:09.442Z,63.00
2022-08-23T22:05:40.947Z,61.40
2022-08-23T22:08:08.653Z,63.10
2022-08-23T22:10:37.840Z,62.90
2022-08-23T22:13:06.159Z,63.10
2022-08-23T22:15:33.600Z,63.00
2022-08-23T22:18:02.117Z,63.10
2022-08-23T22:20:31.476Z,63.10
2022-08-23T22:22:59.704Z,64.00
2022-08-23T22:25:27.267Z,63.10
2022-08-23T22:27:54.231Z,63.10
2022-08-23T22:30:21.621Z,63.00
2022-08-23T22:32:49.800Z,63.10
2022-08-23T22:35:16.684Z,63.10
2022-08-23T22:38:03.634Z,62.90
2022-08-23T22:40:31.491Z,64.00
2022-08-23T22:42:58.222Z,63.00
2022-08-23T22:45:25.071Z,63.00
2022-08-23T22:47:51.905Z,63.10
2022-08-23T22:50:18.770Z,63.00
2022-08-23T22:52:45.569Z,63.00
2022-08-23T22:55:12.376Z,63.00
2022-08-23T22:57:39.351Z,63.00
2022-08-23T23:00:10.877Z,63.10
2022-08-23T23:02:38.830Z,63.00
2022-08-23T23:05:07.097Z,64.00
2022-08-23T23:07:52.431Z,63.00
2022-08-23T23:10:19.409Z,63.70
2022-08-23T23:12:46.352Z,62.80
2022-08-23T23:15:13.564Z,62.80
2022-08-23T23:17:40.383Z,62.80
2022-08-23T23:20:26.315Z,62.70
2022-08-23T23:22:53.245Z,63.60
2022-08-23T23:25:20.179Z,62.80
2022-08-23T23:27:46.929Z,62.70
2022-08-23T23:30:14.282Z,62.70
2022-08-23T23:32:41.365Z,63.60
2022-08-23T23:35:10.541Z,62.80
2022-08-23T23:37:37.607Z,62.70
2022-08-23T23:40:05.959Z,62.80
2022-08-23T23:42:32.887Z,62.70
2022-08-23T23:44:59.703Z,62.80
2022-08-23T23:47:26.795Z,62.80
2022-08-23T23:49:53.694Z,62.90
2022-08-23T23:52:20.507Z,62.80
2022-08-23T23:54:47.316Z,62.80
2022-08-23T23:57:14.244Z,62.80
2022-08-23T23:59:41.199Z,62.80
